Fiambala, Argentina
Current Conditions -  °F | °C
As of 4:00 PM on Saturday 20 Dec 2014 (Local Time) from SANT Reporting Station
Few Clouds Few Clouds  
Wind Chill: 33°   Ceiling: Unl
Heat Index: 39°   Visibility: 6mi
Dew Point: 24°   Wind: 9mph
Humidity: 59%   Direction: 180°S
Pressure: 29.38"   Gusts: NA
Location:  27.68°S, 67.63°W
Report Text: SANT 201900Z 18008KT 9999 FEW035 FEW050TCUFEW200 33/24 Q0995
Loading
Personal Weather Stations






























Interactive Weather Map New forecast layout! Learn more

10-Day Weather Forecast

Advertisements
Track Severe Weather on mobile